CAD110 WIII-WSSS
Flight info
| Callsign | CAD110 |
|---|---|
| Flight time | N/A |
| Altitude | 36000 |
| Route | DOLTA G579 REPOV REPOV2B |
| Aircraft | B733/M-SDE2E3FHIRW/S |
Departure
| Time | 2026-05-07 07:01 |
|---|---|
| Airport | Soekarno-Hatta International Airport (WIII) |
Arrival
| Time | N/A |
|---|---|
| Airport | Singapore Changi Airport (WSSS) |
| Time | Latitude | Longitude | Altitude | Speed | Heading |
|---|---|---|---|---|---|
| 2026-05-07 06:41 | -6.12707 | 106.66139 | 45 ft | 0 kts | 68° |
| 2026-05-07 06:50 | -6.12709 | 106.66133 | 46 ft | 2 kts | 68° |
| 2026-05-07 06:50 | -6.12715 | 106.66119 | 46 ft | 2 kts | 68° |
| 2026-05-07 06:50 | -6.12720 | 106.66105 | 46 ft | 2 kts | 68° |
| 2026-05-07 06:50 | -6.12726 | 106.66090 | 46 ft | 2 kts | 68° |
| 2026-05-07 06:51 | -6.12732 | 106.66077 | 46 ft | 2 kts | 68° |
| 2026-05-07 06:51 | -6.12736 | 106.66067 | 46 ft | 1 kts | 100° |
| 2026-05-07 06:51 | -6.12731 | 106.66058 | 46 ft | 1 kts | 159° |
| 2026-05-07 06:51 | -6.12726 | 106.66058 | 46 ft | 0 kts | 170° |
| 2026-05-07 06:54 | -6.12733 | 106.66060 | 46 ft | 2 kts | 157° |
| 2026-05-07 06:54 | -6.12763 | 106.66073 | 46 ft | 6 kts | 159° |
| 2026-05-07 06:55 | -6.12817 | 106.66094 | 46 ft | 10 kts | 159° |
| 2026-05-07 06:55 | -6.12894 | 106.66125 | 46 ft | 13 kts | 158° |
| 2026-05-07 06:55 | -6.12991 | 106.66164 | 46 ft | 15 kts | 159° |
| 2026-05-07 06:55 | -6.13100 | 106.66208 | 46 ft | 17 kts | 156° |
| 2026-05-07 06:56 | -6.13218 | 106.66254 | 46 ft | 18 kts | 159° |
| 2026-05-07 06:56 | -6.13318 | 106.66235 | 46 ft | 17 kts | 246° |
| 2026-05-07 06:56 | -6.13365 | 106.66112 | 46 ft | 18 kts | 248° |
| 2026-05-07 06:56 | -6.13418 | 106.65980 | 46 ft | 21 kts | 248° |
| 2026-05-07 06:57 | -6.13479 | 106.65826 | 46 ft | 25 kts | 248° |
| 2026-05-07 06:57 | -6.13549 | 106.65652 | 46 ft | 27 kts | 248° |
| 2026-05-07 06:57 | -6.13621 | 106.65470 | 46 ft | 27 kts | 248° |
| 2026-05-07 06:57 | -6.13690 | 106.65297 | 46 ft | 26 kts | 248° |
| 2026-05-07 06:58 | -6.13757 | 106.65128 | 46 ft | 26 kts | 249° |
| 2026-05-07 06:58 | -6.13826 | 106.64957 | 46 ft | 26 kts | 249° |
| 2026-05-07 06:58 | -6.13894 | 106.64786 | 46 ft | 26 kts | 248° |
| 2026-05-07 06:58 | -6.13963 | 106.64610 | 46 ft | 27 kts | 248° |
| 2026-05-07 06:59 | -6.14034 | 106.64433 | 46 ft | 27 kts | 248° |
| 2026-05-07 06:59 | -6.14093 | 106.64314 | 46 ft | 10 kts | 223° |
| 2026-05-07 06:59 | -6.14120 | 106.64299 | 46 ft | 5 kts | 193° |
| 2026-05-07 06:59 | -6.14180 | 106.64317 | 46 ft | 13 kts | 137° |
| 2026-05-07 07:00 | -6.14231 | 106.64413 | 46 ft | 16 kts | 80° |
| 2026-05-07 07:00 | -6.14176 | 106.64558 | 46 ft | 39 kts | 68° |
| 2026-05-07 07:00 | -6.13976 | 106.65061 | 46 ft | 112 kts | 69° |
| 2026-05-07 07:00 | -6.13613 | 106.65957 | 135 ft | 158 kts | 68° |
| 2026-05-07 07:01 | -6.13228 | 106.67027 | 686 ft | 168 kts | 70° |
| 2026-05-07 07:01 | -6.12843 | 106.68165 | 1232 ft | 181 kts | 71° |
| 2026-05-07 07:01 | -6.12443 | 106.69376 | 1877 ft | 185 kts | 70° |
| 2026-05-07 07:01 | -6.11964 | 106.70658 | 2215 ft | 207 kts | 68° |
| 2026-05-07 07:02 | -6.11374 | 106.72061 | 2641 ft | 227 kts | 70° |
| 2026-05-07 07:02 | -6.10661 | 106.73461 | 3402 ft | 233 kts | 48° |
| 2026-05-07 07:02 | -6.09350 | 106.74359 | 4310 ft | 233 kts | 22° |
| 2026-05-07 07:02 | -6.07801 | 106.74902 | 5112 ft | 237 kts | 20° |
| 2026-05-07 07:03 | -6.06227 | 106.75413 | 5906 ft | 241 kts | 17° |
| 2026-05-07 07:03 | -6.04544 | 106.75556 | 6646 ft | 247 kts | 1° |
| 2026-05-07 07:03 | -6.02805 | 106.75503 | 7392 ft | 251 kts | 0° |
| 2026-05-07 07:03 | -6.01051 | 106.75444 | 8140 ft | 254 kts | 0° |
| 2026-05-07 07:04 | -5.99304 | 106.75384 | 8873 ft | 257 kts | 1° |
| 2026-05-07 07:04 | -5.97498 | 106.75330 | 9597 ft | 260 kts | 1° |
| 2026-05-07 07:04 | -5.95684 | 106.75274 | 10323 ft | 263 kts | 0° |
| 2026-05-07 07:04 | -5.93855 | 106.75217 | 11012 ft | 265 kts | 0° |
| 2026-05-07 07:05 | -5.91998 | 106.75163 | 11689 ft | 268 kts | 0° |
| 2026-05-07 07:05 | -5.90131 | 106.75114 | 12325 ft | 270 kts | 0° |
| 2026-05-07 07:05 | -5.88224 | 106.75069 | 12908 ft | 274 kts | 0° |
| 2026-05-07 07:05 | -5.86325 | 106.75024 | 13567 ft | 276 kts | 0° |
| 2026-05-07 07:06 | -5.84400 | 106.74979 | 14185 ft | 279 kts | 1° |
| 2026-05-07 07:06 | -5.82428 | 106.74925 | 14686 ft | 287 kts | 0° |
| 2026-05-07 07:06 | -5.80396 | 106.74460 | 14762 ft | 313 kts | 335° |
| 2026-05-07 07:06 | -5.78382 | 106.73405 | 14821 ft | 338 kts | 334° |
| 2026-05-07 07:07 | -5.76239 | 106.72289 | 14856 ft | 361 kts | 334° |
| 2026-05-07 07:07 | -5.73912 | 106.71114 | 15066 ft | 377 kts | 335° |
| 2026-05-07 07:07 | -5.71537 | 106.69939 | 15569 ft | 383 kts | 335° |
| 2026-05-07 07:07 | -5.69108 | 106.68748 | 16147 ft | 387 kts | 335° |
| 2026-05-07 07:08 | -5.66676 | 106.67562 | 16692 ft | 390 kts | 335° |
| 2026-05-07 07:08 | -5.64200 | 106.66358 | 17233 ft | 394 kts | 335° |
| 2026-05-07 07:08 | -5.61727 | 106.65157 | 17765 ft | 397 kts | 336° |
| 2026-05-07 07:08 | -5.59232 | 106.63945 | 18322 ft | 399 kts | 336° |
| 2026-05-07 07:09 | -5.56713 | 106.62722 | 18865 ft | 401 kts | 336° |
| 2026-05-07 07:09 | -5.54176 | 106.61491 | 19403 ft | 403 kts | 336° |
| 2026-05-07 07:09 | -5.51619 | 106.60250 | 19910 ft | 405 kts | 336° |
| 2026-05-07 07:09 | -5.49074 | 106.59016 | 20408 ft | 408 kts | 336° |
| 2026-05-07 07:10 | -5.46507 | 106.57770 | 20906 ft | 409 kts | 336° |
| 2026-05-07 07:10 | -5.43948 | 106.56529 | 21373 ft | 412 kts | 336° |
| 2026-05-07 07:10 | -5.41343 | 106.55266 | 21841 ft | 413 kts | 336° |
| 2026-05-07 07:10 | -5.38740 | 106.54003 | 22283 ft | 416 kts | 336° |
| 2026-05-07 07:11 | -5.36133 | 106.52740 | 22706 ft | 418 kts | 336° |
| 2026-05-07 07:11 | -5.33485 | 106.51455 | 23075 ft | 422 kts | 336° |
| 2026-05-07 07:11 | -5.30837 | 106.50172 | 23465 ft | 425 kts | 336° |
| 2026-05-07 07:11 | -5.28156 | 106.48872 | 23853 ft | 428 kts | 336° |
| 2026-05-07 07:12 | -5.25492 | 106.47581 | 24214 ft | 431 kts | 336° |
| 2026-05-07 07:12 | -5.22780 | 106.46266 | 24583 ft | 433 kts | 336° |
| 2026-05-07 07:12 | -5.20035 | 106.44936 | 24945 ft | 436 kts | 336° |
| 2026-05-07 07:12 | -5.17304 | 106.43613 | 25304 ft | 439 kts | 336° |
| 2026-05-07 07:13 | -5.14510 | 106.42258 | 25653 ft | 441 kts | 336° |
| 2026-05-07 07:13 | -5.11727 | 106.40910 | 25982 ft | 444 kts | 336° |
| 2026-05-07 07:13 | -5.08954 | 106.39567 | 26304 ft | 447 kts | 336° |
| 2026-05-07 07:13 | -5.06150 | 106.38209 | 26624 ft | 450 kts | 336° |
| 2026-05-07 07:14 | -5.03308 | 106.36832 | 26954 ft | 452 kts | 336° |
| 2026-05-07 07:14 | -5.00469 | 106.35458 | 27250 ft | 455 kts | 336° |
| 2026-05-07 07:14 | -4.97604 | 106.34065 | 27524 ft | 458 kts | 336° |
| 2026-05-07 07:14 | -4.94719 | 106.32656 | 27875 ft | 459 kts | 336° |
| 2026-05-07 07:15 | -4.91842 | 106.31257 | 28336 ft | 457 kts | 336° |
| 2026-05-07 07:15 | -4.88972 | 106.29865 | 28813 ft | 455 kts | 336° |
| 2026-05-07 07:15 | -4.86112 | 106.28485 | 29231 ft | 454 kts | 336° |
| 2026-05-07 07:15 | -4.83253 | 106.27105 | 29717 ft | 452 kts | 335° |
| 2026-05-07 07:16 | -4.80406 | 106.25728 | 30180 ft | 450 kts | 335° |
| 2026-05-07 07:16 | -4.77595 | 106.24368 | 30585 ft | 449 kts | 335° |
| 2026-05-07 07:16 | -4.74783 | 106.23008 | 30956 ft | 449 kts | 335° |
| 2026-05-07 07:16 | -4.71947 | 106.21635 | 31318 ft | 449 kts | 335° |
| 2026-05-07 07:17 | -4.69154 | 106.20284 | 31707 ft | 448 kts | 335° |
| 2026-05-07 07:17 | -4.66323 | 106.18915 | 32112 ft | 446 kts | 335° |
| 2026-05-07 07:17 | -4.63545 | 106.17570 | 32499 ft | 445 kts | 335° |
| 2026-05-07 07:17 | -4.60736 | 106.16212 | 32912 ft | 444 kts | 335° |
| 2026-05-07 07:18 | -4.57929 | 106.14854 | 33353 ft | 442 kts | 335° |
| 2026-05-07 07:18 | -4.55166 | 106.13518 | 33809 ft | 440 kts | 335° |
| 2026-05-07 07:18 | -4.52380 | 106.12170 | 34272 ft | 437 kts | 335° |
| 2026-05-07 07:18 | -4.49627 | 106.10839 | 34734 ft | 435 kts | 335° |
| 2026-05-07 07:19 | -4.46938 | 106.09539 | 35172 ft | 433 kts | 335° |
| 2026-05-07 07:19 | -4.44193 | 106.08212 | 35566 ft | 431 kts | 335° |
| 2026-05-07 07:19 | -4.41494 | 106.06907 | 35808 ft | 433 kts | 335° |
| 2026-05-07 07:19 | -4.38748 | 106.05585 | 35776 ft | 438 kts | 335° |
| 2026-05-07 07:20 | -4.33168 | 106.02895 | 35754 ft | 444 kts | 335° |
| 2026-05-07 07:20 | -4.27571 | 106.00191 | 35752 ft | 447 kts | 335° |
| 2026-05-07 07:21 | -4.21904 | 105.97454 | 35761 ft | 449 kts | 335° |
| 2026-05-07 07:21 | -4.16300 | 105.94747 | 35774 ft | 449 kts | 335° |
| 2026-05-07 07:22 | -4.10605 | 105.91996 | 35761 ft | 450 kts | 335° |
| 2026-05-07 07:22 | -4.04937 | 105.89259 | 35752 ft | 450 kts | 335° |
| 2026-05-07 07:23 | -3.99291 | 105.86533 | 35751 ft | 450 kts | 335° |
| 2026-05-07 07:23 | -3.93625 | 105.83797 | 35752 ft | 450 kts | 335° |
| 2026-05-07 07:24 | -3.87932 | 105.81052 | 35702 ft | 451 kts | 335° |
| 2026-05-07 07:24 | -3.82181 | 105.78285 | 35756 ft | 449 kts | 335° |
| 2026-05-07 07:25 | -3.73708 | 105.74198 | 35751 ft | 450 kts | 335° |
| 2026-05-07 07:26 | -3.68065 | 105.71475 | 35751 ft | 450 kts | 335° |
| 2026-05-07 07:26 | -3.62401 | 105.68743 | 35750 ft | 450 kts | 335° |
| 2026-05-07 07:27 | -3.56753 | 105.66019 | 35754 ft | 450 kts | 335° |
| 2026-05-07 07:27 | -3.51101 | 105.63294 | 35752 ft | 450 kts | 335° |
| 2026-05-07 07:28 | -3.45428 | 105.60558 | 35752 ft | 450 kts | 335° |
| 2026-05-07 07:28 | -3.39793 | 105.57841 | 35751 ft | 450 kts | 335° |
| 2026-05-07 07:29 | -3.34115 | 105.55104 | 35751 ft | 450 kts | 335° |
| 2026-05-07 07:29 | -3.28456 | 105.52377 | 35751 ft | 450 kts | 335° |
| 2026-05-07 07:30 | -3.22817 | 105.49658 | 35751 ft | 451 kts | 335° |
| 2026-05-07 07:30 | -3.17149 | 105.46927 | 35750 ft | 451 kts | 335° |
| 2026-05-07 07:31 | -3.11472 | 105.44213 | 35746 ft | 451 kts | 335° |
| 2026-05-07 07:31 | -3.05767 | 105.41473 | 35734 ft | 452 kts | 335° |
| 2026-05-07 07:32 | -3.00120 | 105.38752 | 35731 ft | 452 kts | 335° |
| 2026-05-07 07:32 | -2.94431 | 105.36011 | 35732 ft | 452 kts | 335° |
| 2026-05-07 07:33 | -2.88724 | 105.33250 | 35687 ft | 453 kts | 335° |
| 2026-05-07 07:33 | -2.83071 | 105.30524 | 35739 ft | 451 kts | 335° |
| 2026-05-07 07:34 | -2.77389 | 105.27788 | 35735 ft | 451 kts | 335° |
| 2026-05-07 07:34 | -2.71738 | 105.25067 | 35737 ft | 451 kts | 335° |
| 2026-05-07 07:35 | -2.66066 | 105.22337 | 35735 ft | 451 kts | 335° |
| 2026-05-07 07:35 | -2.60387 | 105.19604 | 35732 ft | 452 kts | 335° |
| 2026-05-07 07:36 | -2.54669 | 105.16851 | 35731 ft | 453 kts | 335° |
| 2026-05-07 07:36 | -2.48994 | 105.14119 | 35732 ft | 453 kts | 335° |
| 2026-05-07 07:37 | -2.43295 | 105.11376 | 35740 ft | 454 kts | 335° |
| 2026-05-07 07:37 | -2.37574 | 105.08624 | 35749 ft | 454 kts | 335° |
| 2026-05-07 07:38 | -2.31851 | 105.05869 | 35751 ft | 455 kts | 335° |
| 2026-05-07 07:38 | -2.26157 | 105.03130 | 35753 ft | 455 kts | 335° |
| 2026-05-07 07:39 | -2.20399 | 105.00360 | 35753 ft | 456 kts | 335° |
| 2026-05-07 07:39 | -2.14705 | 104.97621 | 35751 ft | 456 kts | 335° |
| 2026-05-07 07:40 | -2.08948 | 104.94852 | 35754 ft | 456 kts | 335° |
| 2026-05-07 07:40 | -2.03221 | 104.92097 | 35752 ft | 457 kts | 336° |
| 2026-05-07 07:41 | -1.97462 | 104.89327 | 35752 ft | 457 kts | 336° |
| 2026-05-07 07:41 | -1.91744 | 104.86578 | 35752 ft | 458 kts | 335° |
| 2026-05-07 07:42 | -1.85967 | 104.83807 | 35734 ft | 457 kts | 335° |
| 2026-05-07 07:42 | -1.80259 | 104.81068 | 35752 ft | 455 kts | 335° |
| 2026-05-07 07:43 | -1.74556 | 104.78326 | 35752 ft | 454 kts | 335° |
| 2026-05-07 07:43 | -1.68844 | 104.75580 | 35751 ft | 453 kts | 335° |
| 2026-05-07 07:44 | -1.63129 | 104.72832 | 35745 ft | 454 kts | 335° |